| time (UTC) | temp C | wind direction | speed KPH | gust KPH | rain 1hr cm | rain 24hr cm | rain mn cm | humidity % | barometer mb |
| 20260906181249 | 30 | 102 | 9.7 | 9.7 | 0.00 | 0.00 | 0.00 | 71 | 1016.3 |
| 20260906180748 | 30 | 162 | 3.2 | 3.2 | 0.00 | 0.00 | 0.00 | 71 | 1016.3 |
| 20260906180244 | 30 | 210 | 9.7 | 9.7 | 0.00 | 0.00 | 0.00 | 70 | 1016.7 |
| 20260906175741 | 30 | 193 | 9.7 | 9.7 | 0.00 | 0.00 | 0.00 | 71 | 1016.3 |
| 20260906175237 | 30 | 40 | 3.2 | 3.2 | 0.00 | 0.00 | 0.00 | 74 | 1016.3 |
| 20260906174735 | 30 | 180 | 4.8 | 4.8 | 0.00 | 0.00 | 0.00 | 75 | 1016.7 |
| 20260906174235 | 30 | 216 | 6.4 | 8.0 | 0.00 | 0.00 | 0.00 | 76 | 1016.7 |
| 20260906173730 | 30 | 90 | 3.2 | 3.2 | 0.00 | 0.00 | 0.00 | 77 | 1016.7 |
| 20260906173226 | 29 | 295 | 3.2 | 3.2 | 0.00 | 0.00 | 0.00 | 80 | 1016.7 |
| 20260906172725 | 28 | 210 | 0.0 | 0.0 | 0.00 | 0.00 | 0.00 | 79 | 1016.7 |
| 20260906172220 | 28 | 330 | 3.2 | 3.2 | 0.00 | 0.00 | 0.00 | 80 | 1016.7 |
| 20260906171721 | 28 | 36 | 6.4 | 6.4 | 0.00 | 0.00 | 0.00 | 81 | 1016.7 |
| 20260906171216 | 28 | 198 | 3.2 | 3.2 | 0.00 | 0.00 | 0.00 | 82 | 1017.4 |
| 20260906170712 | 27 | 186 | 3.2 | 3.2 | 0.00 | 0.00 | 0.00 | 82 | 1017.0 |
| 20260906170212 | 27 | 204 | 3.2 | 3.2 | 0.00 | 0.00 | 0.00 | 84 | 1017.0 |
| 20260906165708 | 27 | 173 | 6.4 | 6.4 | 0.00 | 0.00 | 0.00 | 83 | 1017.4 |
| 20260906165203 | 27 | 210 | 6.4 | 6.4 | 0.00 | 0.00 | 0.00 | 84 | 1017.4 |
| 20260906164702 | 27 | 222 | 3.2 | 3.2 | 0.00 | 0.00 | 0.00 | 85 | 1017.4 |
| 20260906164158 | 27 | 198 | 4.8 | 4.8 | 0.00 | 0.00 | 0.00 | 84 | 1017.4 |
| 20260906163654 | 27 | 210 | 0.0 | 0.0 | 0.00 | 0.00 | 0.00 | 85 | 1017.4 |
| 20260906163150 | 27 | 216 | 4.8 | 4.8 | 0.00 | 0.00 | 0.00 | 86 | 1017.7 |
| 20260906162647 | 27 | 173 | 6.4 | 6.4 | 0.00 | 0.00 | 0.00 | 83 | 1017.4 |
| 20260906162146 | 27 | 178 | 3.2 | 3.2 | 0.00 | 0.00 | 0.00 | 83 | 1017.7 |
| 20260906161641 | 26 | 156 | 3.2 | 3.2 | 0.00 | 0.00 | 0.00 | 84 | 1017.4 |
| 20260906161140 | 26 | 240 | 3.2 | 3.2 | 0.00 | 0.00 | 0.00 | 88 | 1017.7 |
| 20260906160639 | 26 | 216 | 3.2 | 3.2 | 0.00 | 0.00 | 0.00 | 87 | 1017.7 |
| 20260906160138 | 26 | 252 | 3.2 | 3.2 | 0.00 | 0.00 | 0.00 | 87 | 1017.7 |
| 20260906155636 | 26 | 252 | 9.7 | 9.7 | 0.00 | 0.00 | 0.00 | 88 | 1018.0 |
| 20260906155132 | 26 | 228 | 6.4 | 6.4 | 0.00 | 0.00 | 0.00 | 87 | 1017.4 |
| 20260906154627 | 26 | 149 | 6.4 | 6.4 | 0.00 | 0.00 | 0.00 | 85 | 1017.4 |
| 20260906154126 | 26 | 180 | 6.4 | 6.4 | 0.00 | 0.00 | 0.00 | 85 | 1017.4 |
| 20260906153625 | 26 | 135 | 6.4 | 6.4 | 0.00 | 0.00 | 0.00 | 85 | 1017.4 |
| 20260906153120 | 26 | 155 | 11.3 | 11.3 | 0.00 | 0.00 | 0.00 | 85 | 1017.0 |
| 20260906152615 | 26 | 155 | 3.2 | 3.2 | 0.00 | 0.00 | 0.00 | 85 | 1017.0 |
| 20260906152115 | 26 | 168 | 3.2 | 3.2 | 0.00 | 0.00 | 0.00 | 87 | 1017.0 |
| 20260906151610 | 26 | 144 | 6.4 | 6.4 | 0.00 | 0.00 | 0.00 | 86 | 1017.0 |
| 20260906151106 | 26 | 204 | 6.4 | 6.4 | 0.00 | 0.00 | 0.00 | 86 | 1017.0 |
| 20260906150601 | 26 | 198 | 3.2 | 3.2 | 0.00 | 0.00 | 0.00 | 87 | 1017.4 |
| 20260906150056 | 26 | 154 | 6.4 | 6.4 | 0.00 | 0.00 | 0.00 | 88 | 1017.4 |
| 20260906145554 | 26 | 150 | 8.0 | 8.0 | 0.00 | 0.00 | 0.00 | 87 | 1017.0 |
| 20260906145050 | 26 | 252 | 0.0 | 0.0 | 0.00 | 0.00 | 0.00 | 88 | 1017.0 |
| 20260906144544 | 26 | 174 | 3.2 | 3.2 | 0.00 | 0.00 | 0.00 | 88 | 1017.0 |
| 20260906144039 | 26 | 174 | 3.2 | 3.2 | 0.00 | 0.00 | 0.00 | 89 | 1017.0 |
| 20260906143534 | 26 | 66 | 3.2 | 3.2 | 0.00 | 0.00 | 0.00 | 89 | 1017.0 |
| 20260906143032 | 26 | 89 | 3.2 | 3.2 | 0.00 | 0.00 | 0.00 | 89 | 1017.0 |
| 20260906142530 | 26 | 54 | 3.2 | 3.2 | 0.00 | 0.00 | 0.00 | 88 | 1017.0 |
| 20260906142026 | 26 | 192 | 0.0 | 0.0 | 0.00 | 0.00 | 0.00 | 88 | 1017.0 |
| 20260906141525 | 25 | 78 | 3.2 | 3.2 | 0.00 | 0.00 | 0.00 | 88 | 1017.4 |
| 20260906141021 | 25 | 234 | 0.0 | 0.0 | 0.00 | 0.00 | 0.00 | 88 | 1017.4 |
| 20260906140520 | 25 | 138 | 0.0 | 0.0 | 0.00 | 0.00 | 0.00 | 90 | 1017.4 |
| 20260906140020 | 25 | 228 | 3.2 | 3.2 | 0.00 | 0.00 | 0.00 | 89 | 1017.4 |
| 20260906135517 | 25 | 100 | 3.2 | 3.2 | 0.00 | 0.00 | 0.00 | 88 | 1017.4 |
| 20260906135013 | 25 | 234 | 9.7 | 9.7 | 0.00 | 0.00 | 0.00 | 86 | 1017.4 |
| 20260906134508 | 25 | 228 | 6.4 | 6.4 | 0.00 | 0.00 | 0.00 | 88 | 1017.4 |
| 20260906134008 | 25 | 198 | 3.2 | 3.2 | 0.00 | 0.00 | 0.00 | 90 | 1017.4 |
| 20260906133504 | 26 | 169 | 3.2 | 3.2 | 0.00 | 0.00 | 0.00 | 88 | 1017.4 |
| 20260906132959 | 26 | 234 | 6.4 | 6.4 | 0.00 | 0.00 | 0.00 | 87 | 1017.4 |
| 20260906132454 | 26 | 71 | 4.8 | 4.8 | 0.00 | 0.00 | 0.00 | 87 | 1017.4 |
| 20260906131949 | 25 | 282 | 0.0 | 0.0 | 0.00 | 0.00 | 0.00 | 88 | 1017.4 |
| 20260906131445 | 25 | 198 | 4.8 | 4.8 | 0.00 | 0.00 | 0.00 | 91 | 1017.0 |
| 20260906130940 | 25 | 192 | 6.4 | 6.4 | 0.00 | 0.00 | 0.00 | 92 | 1017.0 |
| 20260906130439 | 25 | 66 | 0.0 | 0.0 | 0.00 | 0.00 | 0.00 | 92 | 1017.4 |
| 20260906125934 | 25 | 309 | 0.0 | 0.0 | 0.00 | 0.00 | 0.00 | 93 | 1017.0 |
| 20260906125432 | 25 | 82 | 3.2 | 3.2 | 0.00 | 0.00 | 0.00 | 93 | 1017.4 |
| 20260906124931 | 24 | 61 | 0.0 | 0.0 | 0.00 | 0.00 | 0.00 | 94 | 1017.0 |
| 20260906124428 | 24 | 83 | 3.2 | 3.2 | 0.00 | 0.00 | 0.00 | 94 | 1017.0 |
| 20260906123927 | 24 | 82 | 3.2 | 3.2 | 0.00 | 0.00 | 0.00 | 95 | 1017.0 |
| 20260906123426 | 24 | 82 | 0.0 | 0.0 | 0.00 | 0.00 | 0.00 | 95 | 1017.0 |
| 20260906122921 | 24 | 72 | 0.0 | 0.0 | 0.00 | 0.00 | 0.00 | 95 | 1016.7 |
| 20260906122421 | 24 | 72 | 3.2 | 3.2 | 0.00 | 0.00 | 0.00 | 96 | 1017.0 |
| 20260906121919 | 23 | 54 | 3.2 | 3.2 | 0.00 | 0.00 | 0.00 | 96 | 1016.7 |
| 20260906121414 | 23 | 348 | 3.2 | 3.2 | 0.00 | 0.00 | 0.00 | 96 | 1017.0 |
| 20260906120911 | 23 | 340 | 0.0 | 0.0 | 0.00 | 0.00 | 0.00 | 96 | 1017.0 |
| 20260906120406 | 23 | 324 | 3.2 | 3.2 | 0.00 | 0.00 | 0.00 | 96 | 1016.7 |
| 20260906115902 | 23 | 84 | 0.0 | 0.0 | 0.00 | 0.00 | 0.00 | 96 | 1016.7 |
| 20260906115357 | 23 | 84 | 0.0 | 0.0 | 0.00 | 0.00 | 0.00 | 96 | 1016.7 |
| 20260906114856 | 23 | 84 | 0.0 | 0.0 | 0.00 | 0.00 | 0.00 | 95 | 1016.7 |
| 20260906114352 | 23 | 84 | 0.0 | 0.0 | 0.00 | 0.00 | 0.00 | 95 | 1016.3 |
| 20260906113847 | 23 | 77 | 3.2 | 3.2 | 0.00 | 0.00 | 0.00 | 95 | 1016.7 |
| 20260906113346 | 23 | 78 | 6.4 | 6.4 | 0.00 | 0.00 | 0.00 | 95 | 1016.3 |
| 20260906112842 | 23 | 76 | 6.4 | 6.4 | 0.00 | 0.00 | 0.00 | 95 | 1016.7 |
| 20260906112338 | 23 | 57 | 3.2 | 3.2 | 0.00 | 0.00 | 0.00 | 95 | 1016.3 |
| 20260906111838 | 23 | 57 | 0.0 | 0.0 | 0.00 | 0.00 | 0.00 | 95 | 1016.7 |
| 20260906111337 | 23 | 42 | 4.8 | 4.8 | 0.00 | 0.00 | 0.00 | 95 | 1016.3 |
| 20260906110832 | 23 | 54 | 3.2 | 3.2 | 0.00 | 0.00 | 0.00 | 95 | 1016.3 |
| 20260906110328 | 23 | 45 | 3.2 | 3.2 | 0.00 | 0.00 | 0.00 | 95 | 1016.3 |
| 20260906105827 | 23 | 66 | 0.0 | 0.0 | 0.00 | 0.00 | 0.00 | 95 | 1016.3 |
| 20260906105323 | 23 | 66 | 3.2 | 3.2 | 0.00 | 0.00 | 0.00 | 95 | 1016.3 |
| 20260906104819 | 23 | 90 | 3.2 | 3.2 | 0.00 | 0.00 | 0.00 | 97 | 1016.3 |
| 20260906104317 | 23 | 89 | 3.2 | 3.2 | 0.00 | 0.00 | 0.00 | 98 | 1016.3 |
| 20260906103816 | 23 | 77 | 0.0 | 0.0 | 0.00 | 0.00 | 0.00 | 98 | 1016.0 |
| 20260906103315 | 22 | 77 | 0.0 | 0.0 | 0.00 | 0.00 | 0.00 | 97 | 1015.7 |
| 20260906102811 | 23 | 77 | 0.0 | 0.0 | 0.00 | 0.00 | 0.00 | 97 | 1016.0 |
| 20260906102309 | 23 | 77 | 0.0 | 0.0 | 0.00 | 0.00 | 0.00 | 96 | 1016.0 |
| 20260906101805 | 23 | 77 | 0.0 | 0.0 | 0.00 | 0.00 | 0.00 | 96 | 1016.0 |
| 20260906101300 | 23 | 77 | 0.0 | 0.0 | 0.00 | 0.00 | 0.00 | 96 | 1015.7 |
| 20260906100755 | 23 | 77 | 0.0 | 0.0 | 0.00 | 0.00 | 0.00 | 97 | 1015.7 |
| 20260906100254 | 23 | 77 | 0.0 | 0.0 | 0.00 | 0.00 | 0.00 | 97 | 1016.0 |
| 20260906095750 | 23 | 77 | 3.2 | 3.2 | 0.00 | 0.00 | 0.00 | 98 | 1016.0 |
| 20260906095245 | 22 | 72 | 3.2 | 3.2 | 0.00 | 0.00 | 0.00 | 98 | 1015.7 |
| 20260906094744 | 22 | 72 | 0.0 | 0.0 | 0.00 | 0.00 | 0.00 | 98 | 1015.7 |
| 20260906094239 | 22 | 72 | 0.0 | 0.0 | 0.00 | 0.00 | 0.00 | 97 | 1015.7 |
| 20260906093736 | 22 | 72 | 0.0 | 0.0 | 0.00 | 0.00 | 0.00 | 96 | 1016.0 |
| 20260906093231 | 22 | 72 | 0.0 | 0.0 | 0.00 | 0.00 | 0.00 | 96 | 1016.0 |
| 20260906092727 | 23 | 72 | 0.0 | 0.0 | 0.00 | 0.00 | 0.00 | 94 | 1016.0 |
| 20260906092226 | 23 | 72 | 0.0 | 0.0 | 0.00 | 0.00 | 0.00 | 95 | 1015.7 |
| 20260906091722 | 23 | 72 | 0.0 | 0.0 | 0.00 | 0.00 | 0.00 | 94 | 1016.0 |
| 20260906091218 | 24 | 72 | 0.0 | 0.0 | 0.00 | 0.00 | 0.00 | 95 | 1016.0 |
| 20260906090715 | 24 | 72 | 3.2 | 3.2 | 0.00 | 0.00 | 0.00 | 95 | 1016.0 |
| 20260906090213 | 24 | 72 | 0.0 | 0.0 | 0.00 | 0.00 | 0.00 | 94 | 1016.0 |
| 20260906085713 | 24 | 72 | 0.0 | 0.0 | 0.00 | 0.00 | 0.00 | 94 | 1016.0 |
| 20260906085211 | 24 | 72 | 3.2 | 3.2 | 0.00 | 0.00 | 0.00 | 94 | 1016.0 |
| 20260906084707 | 24 | 72 | 3.2 | 3.2 | 0.00 | 0.00 | 0.00 | 94 | 1016.0 |
| 20260906084206 | 25 | 72 | 3.2 | 3.2 | 0.00 | 0.00 | 0.00 | 94 | 1016.0 |
| 20260906083702 | 25 | 72 | 3.2 | 3.2 | 0.00 | 0.00 | 0.00 | 93 | 1016.0 |
| 20260906083157 | 24 | 54 | 3.2 | 3.2 | 0.00 | 0.00 | 0.00 | 94 | 1015.7 |
| 20260906082652 | 24 | 126 | 0.0 | 0.0 | 0.00 | 0.00 | 0.00 | 94 | 1015.7 |
| 20260906082147 | 24 | 136 | 3.2 | 3.2 | 0.00 | 0.00 | 0.00 | 94 | 1015.7 |
| 20260906081643 | 24 | 136 | 0.0 | 0.0 | 0.00 | 0.00 | 0.00 | 94 | 1015.7 |
| 20260906081138 | 24 | 210 | 0.0 | 0.0 | 0.00 | 0.00 | 0.00 | 95 | 1015.7 |
| 20260906080635 | 23 | 210 | 0.0 | 0.0 | 0.00 | 0.00 | 0.00 | 96 | 1015.2 |
| 20260906080131 | 23 | 210 | 6.4 | 6.4 | 0.00 | 0.00 | 0.00 | 96 | 1015.7 |
| 20260906075630 | 23 | 294 | 0.0 | 0.0 | 0.00 | 0.00 | 0.00 | 95 | 1015.7 |
| 20260906075125 | 24 | 335 | 0.0 | 0.0 | 0.00 | 0.00 | 0.00 | 94 | 1015.7 |
| 20260906074620 | 25 | 347 | 0.0 | 0.0 | 0.00 | 0.00 | 0.00 | 94 | 1015.7 |
| 20260906074119 | 25 | 347 | 0.0 | 0.0 | 0.00 | 0.00 | 0.00 | 94 | 1015.7 |
| 20260906073614 | 25 | 330 | 0.0 | 0.0 | 0.00 | 0.00 | 0.00 | 93 | 1015.2 |
| 20260906073110 | 25 | 60 | 0.0 | 0.0 | 0.00 | 0.00 | 0.00 | 93 | 1015.2 |
| 20260906072604 | 25 | 48 | 0.0 | 0.0 | 0.00 | 0.00 | 0.00 | 94 | 1015.7 |
| 20260906072101 | 24 | 48 | 0.0 | 0.0 | 0.00 | 0.00 | 0.00 | 94 | 1015.7 |
| 20260906071557 | 24 | 270 | 6.4 | 6.4 | 0.00 | 0.00 | 0.00 | 93 | 1015.7 |
| 20260906071057 | 24 | 204 | 0.0 | 0.0 | 0.00 | 0.00 | 0.00 | 94 | 1015.7 |
| 20260906070554 | 24 | 264 | 0.0 | 0.0 | 0.00 | 0.00 | 0.00 | 93 | 1015.7 |
| 20260906070049 | 25 | 264 | 0.0 | 0.0 | 0.00 | 0.00 | 0.00 | 93 | 1015.7 |
| 20260906065548 | 25 | 264 | 0.0 | 0.0 | 0.00 | 0.00 | 0.00 | 93 | 1015.7 |
| 20260906065044 | 25 | 264 | 0.0 | 0.0 | 0.00 | 0.00 | 0.00 | 93 | 1016.0 |
| 20260906064540 | 25 | 264 | 3.2 | 3.2 | 0.00 | 0.00 | 0.00 | 93 | 1015.7 |
| 20260906064034 | 25 | 264 | 0.0 | 0.0 | 0.00 | 0.00 | 0.00 | 92 | 1016.0 |
| 20260906063530 | 26 | 66 | 0.0 | 0.0 | 0.00 | 0.00 | 0.00 | 90 | 1016.0 |
| 20260906063026 | 26 | 315 | 3.2 | 3.2 | 0.00 | 0.00 | 0.00 | 90 | 1015.7 |
| 20260906062521 | 26 | 246 | 0.0 | 0.0 | 0.00 | 0.00 | 0.00 | 90 | 1015.7 |
| 20260906062015 | 26 | 246 | 3.2 | 3.2 | 0.00 | 0.00 | 0.00 | 89 | 1015.7 |
| 20260906061512 | 26 | 72 | 3.2 | 3.2 | 0.00 | 0.00 | 0.00 | 89 | 1015.7 |
| 20260906061010 | 26 | 228 | 3.2 | 3.2 | 0.00 | 0.00 | 0.00 | 89 | 1015.7 |
| 20260906060507 | 26 | 192 | 3.2 | 3.2 | 0.00 | 0.00 | 0.00 | 88 | 1015.7 |
| 20260906060004 | 26 | 314 | 3.2 | 3.2 | 0.00 | 0.00 | 0.00 | 89 | 1015.7 |
| 20260906055459 | 26 | 170 | 3.2 | 3.2 | 0.00 | 0.00 | 0.00 | 89 | 1015.7 |
| 20260906054955 | 26 | 198 | 3.2 | 3.2 | 0.00 | 0.00 | 0.00 | 89 | 1015.7 |
| 20260906054455 | 26 | 163 | 0.0 | 0.0 | 0.00 | 0.00 | 0.00 | 89 | 1015.7 |
| 20260906053950 | 26 | 147 | 3.2 | 3.2 | 0.00 | 0.00 | 0.00 | 89 | 1015.7 |
| 20260906053446 | 26 | 76 | 3.2 | 3.2 | 0.00 | 0.00 | 0.00 | 88 | 1016.0 |
| 20260906052942 | 26 | 338 | 3.2 | 3.2 | 0.00 | 0.00 | 0.00 | 88 | 1015.7 |
| 20260906052438 | 26 | 66 | 3.2 | 3.2 | 0.00 | 0.00 | 0.00 | 89 | 1015.7 |
| 20260906051934 | 26 | 50 | 3.2 | 3.2 | 0.00 | 0.00 | 0.00 | 89 | 1015.7 |
| 20260906051430 | 26 | 60 | 3.2 | 3.2 | 0.00 | 0.00 | 0.00 | 90 | 1015.7 |
| 20260906050925 | 26 | 72 | 3.2 | 3.2 | 0.00 | 0.00 | 0.00 | 89 | 1016.0 |
| 20260906050425 | 26 | 66 | 3.2 | 3.2 | 0.00 | 0.00 | 0.00 | 89 | 1016.0 |
| 20260906045924 | 26 | 69 | 6.4 | 6.4 | 0.00 | 0.00 | 0.00 | 90 | 1016.0 |
| 20260906045423 | 26 | 62 | 3.2 | 3.2 | 0.00 | 0.00 | 0.00 | 90 | 1016.0 |
| 20260906044920 | 26 | 77 | 0.0 | 0.0 | 0.00 | 0.00 | 0.00 | 91 | 1016.0 |
| 20260906044420 | 25 | 66 | 0.0 | 0.0 | 0.00 | 0.00 | 0.00 | 91 | 1016.3 |
| 20260906043915 | 25 | 75 | 3.2 | 3.2 | 0.00 | 0.00 | 0.00 | 91 | 1016.3 |
| 20260906043411 | 25 | 6 | 0.0 | 0.0 | 0.00 | 0.00 | 0.00 | 91 | 1016.3 |
| 20260906042906 | 25 | 6 | 3.2 | 3.2 | 0.00 | 0.00 | 0.00 | 91 | 1016.3 |
| 20260906042406 | 26 | 353 | 0.0 | 0.0 | 0.00 | 0.00 | 0.00 | 91 | 1016.3 |
| 20260906041901 | 26 | 312 | 3.2 | 3.2 | 0.00 | 0.00 | 0.00 | 90 | 1016.0 |
| 20260906041357 | 26 | 324 | 3.2 | 3.2 | 0.00 | 0.00 | 0.00 | 90 | 1016.3 |
| 20260906040856 | 26 | 359 | 3.2 | 3.2 | 0.00 | 0.00 | 0.00 | 90 | 1016.3 |
| 20260906040352 | 26 | 18 | 3.2 | 3.2 | 0.00 | 0.00 | 0.00 | 90 | 1016.0 |
| 20260906035847 | 26 | 300 | 0.0 | 0.0 | 0.00 | 0.00 | 0.00 | 89 | 1016.0 |
| 20260906035342 | 26 | 1 | 0.0 | 0.0 | 0.00 | 0.00 | 0.00 | 89 | 1016.3 |
| 20260906034838 | 26 | 336 | 0.0 | 0.0 | 0.00 | 0.00 | 0.00 | 89 | 1016.3 |
| 20260906034333 | 26 | 313 | 3.2 | 3.2 | 0.00 | 0.00 | 0.00 | 88 | 1016.0 |
| 20260906033829 | 26 | 54 | 3.2 | 3.2 | 0.00 | 0.00 | 0.00 | 88 | 1016.0 |
| 20260906033328 | 26 | 84 | 0.0 | 0.0 | 0.00 | 0.00 | 0.00 | 88 | 1016.0 |
| 20260906032824 | 26 | 85 | 3.2 | 3.2 | 0.00 | 0.00 | 0.00 | 88 | 1016.0 |
| 20260906032320 | 26 | 19 | 0.0 | 0.0 | 0.00 | 0.00 | 0.00 | 88 | 1016.0 |
| 20260906031815 | 26 | 12 | 3.2 | 3.2 | 0.00 | 0.00 | 0.00 | 88 | 1015.7 |
| 20260906031310 | 26 | 331 | 3.2 | 3.2 | 0.00 | 0.00 | 0.00 | 88 | 1015.7 |
| 20260906030810 | 26 | 54 | 3.2 | 3.2 | 0.00 | 0.00 | 0.00 | 88 | 1015.7 |
| 20260906030305 | 26 | 1 | 0.0 | 0.0 | 0.00 | 0.00 | 0.00 | 88 | 1015.2 |
| 20260906025805 | 26 | 1 | 0.0 | 0.0 | 0.00 | 0.00 | 0.00 | 87 | 1015.2 |
| 20260906025259 | 26 | 29 | 3.2 | 3.2 | 0.00 | 0.00 | 0.00 | 87 | 1015.2 |
| 20260906024758 | 26 | 349 | 0.0 | 0.0 | 0.00 | 0.00 | 0.00 | 87 | 1015.2 |
| 20260906024257 | 26 | 24 | 3.2 | 3.2 | 0.00 | 0.00 | 0.00 | 87 | 1014.9 |
| 20260906023753 | 26 | 28 | 3.2 | 3.2 | 0.00 | 0.00 | 0.00 | 87 | 1015.2 |
| 20260906023248 | 26 | 42 | 3.2 | 3.2 | 0.00 | 0.00 | 0.00 | 87 | 1015.2 |
| 20260906022744 | 26 | 39 | 3.2 | 3.2 | 0.00 | 0.00 | 0.00 | 87 | 1014.9 |
| 20260906022239 | 26 | 32 | 3.2 | 3.2 | 0.00 | 0.00 | 0.00 | 87 | 1015.2 |
| 20260906021735 | 26 | 340 | 3.2 | 3.2 | 0.00 | 0.00 | 0.00 | 87 | 1014.9 |
| 20260906021234 | 26 | 336 | 3.2 | 3.2 | 0.00 | 0.00 | 0.00 | 87 | 1014.9 |
| 20260906020729 | 26 | 320 | 0.0 | 0.0 | 0.00 | 0.00 | 0.00 | 86 | 1014.9 |
| 20260906020223 | 26 | 5 | 0.0 | 0.0 | 0.00 | 0.00 | 0.00 | 86 | 1014.9 |
| 20260906015723 | 27 | 1 | 3.2 | 3.2 | 0.00 | 0.00 | 0.00 | 85 | 1014.6 |
| 20260906015222 | 27 | 1 | 0.0 | 0.0 | 0.00 | 0.00 | 0.00 | 85 | 1014.6 |
| 20260906014716 | 27 | 342 | 3.2 | 3.2 | 0.00 | 0.00 | 0.00 | 85 | 1014.6 |
| 20260906014212 | 27 | 315 | 0.0 | 0.0 | 0.00 | 0.00 | 0.00 | 84 | 1014.2 |
| 20260906013703 | 27 | 315 | 0.0 | 0.0 | 0.00 | 0.00 | 0.00 | 84 | 1014.6 |
| 20260906013203 | 27 | 342 | 3.2 | 3.2 | 0.00 | 0.00 | 0.00 | 83 | 1014.6 |
| 20260906012658 | 27 | 342 | 3.2 | 3.2 | 0.00 | 0.00 | 0.00 | 83 | 1014.6 |
| 20260906012157 | 27 | 302 | 3.2 | 3.2 | 0.00 | 0.00 | 0.00 | 83 | 1014.2 |
| 20260906011653 | 27 | 6 | 3.2 | 3.2 | 0.00 | 0.00 | 0.00 | 83 | 1014.2 |
| 20260906011148 | 28 | 345 | 0.0 | 0.0 | 0.00 | 0.00 | 0.00 | 82 | 1014.2 |
| 20260906010643 | 28 | 343 | 0.0 | 0.0 | 0.00 | 0.00 | 0.00 | 81 | 1014.2 |
| 20260906010139 | 28 | 343 | 0.0 | 0.0 | 0.00 | 0.00 | 0.00 | 80 | 1014.2 |
| 20260906005639 | 28 | 348 | 0.0 | 0.0 | 0.00 | 0.00 | 0.00 | 79 | 1013.9 |
| 20260906005138 | 28 | 69 | 3.2 | 3.2 | 0.00 | 0.00 | 0.00 | 78 | 1014.2 |
| 20260906004637 | 29 | 69 | 3.2 | 3.2 | 0.00 | 0.00 | 0.00 | 77 | 1014.2 |
| 20260906004132 | 29 | 90 | 0.0 | 0.0 | 0.00 | 0.00 | 0.00 | 76 | 1013.9 |
| 20260906003627 | 29 | 86 | 3.2 | 3.2 | 0.00 | 0.00 | 0.00 | 75 | 1013.9 |
| 20260906003124 | 30 | 79 | 3.2 | 3.2 | 0.00 | 0.00 | 0.00 | 74 | 1013.9 |
| 20260906002618 | 30 | 83 | 3.2 | 3.2 | 0.00 | 0.00 | 0.00 | 73 | 1013.9 |
| 20260906002114 | 30 | 73 | 4.8 | 4.8 | 0.00 | 0.00 | 0.00 | 72 | 1013.9 |
| 20260906001609 | 30 | 64 | 6.4 | 6.4 | 0.00 | 0.00 | 0.00 | 71 | 1013.9 |
| 20260906001108 | 31 | 76 | 6.4 | 8.0 | 0.00 | 0.00 | 0.00 | 70 | 1013.9 |
| 20260906000605 | 31 | 84 | 8.0 | 9.7 | 0.00 | 0.00 | 0.00 | 69 | 1013.9 |
| 20260906000059 | 31 | 76 | 8.0 | 8.0 | 0.00 | 0.00 | 0.00 | 69 | 1013.9 |
| 20260905235559 | 31 | 100 | 8.0 | 8.0 | 0.00 | 0.00 | 0.00 | 68 | 1013.9 |
| 20260905235054 | 31 | 69 | 8.0 | 8.0 | 0.00 | 0.00 | 0.00 | 68 | 1013.9 |
| 20260905234549 | 31 | 67 | 6.4 | 6.4 | 0.00 | 0.00 | 0.00 | 66 | 1014.2 |
| 20260905234045 | 31 | 68 | 6.4 | 8.0 | 0.00 | 0.00 | 0.00 | 66 | 1013.9 |
| 20260905233544 | 31 | 84 | 4.8 | 4.8 | 0.00 | 0.00 | 0.00 | 66 | 1013.9 |
| 20260905233044 | 31 | 74 | 6.4 | 6.4 | 0.00 | 0.00 | 0.00 | 66 | 1014.2 |
| 20260905232540 | 31 | 78 | 9.7 | 9.7 | 0.00 | 0.00 | 0.00 | 63 | 1013.9 |
| 20260905232035 | 31 | 84 | 6.4 | 8.0 | 0.00 | 0.00 | 0.00 | 63 | 1013.9 |
| 20260905231530 | 31 | 39 | 3.2 | 3.2 | 0.00 | 0.00 | 0.00 | 63 | 1013.9 |
| 20260905231027 | 31 | 198 | 0.0 | 0.0 | 0.00 | 0.00 | 0.00 | 61 | 1013.9 |
| 20260905230526 | 32 | 84 | 8.0 | 9.7 | 0.00 | 0.00 | 0.00 | 61 | 1013.9 |
| 20260905230024 | 32 | 54 | 6.4 | 6.4 | 0.00 | 0.00 | 0.00 | 59 | 1013.9 |
| 20260905225519 | 32 | 85 | 6.4 | 6.4 | 0.00 | 0.00 | 0.00 | 61 | 1013.9 |
| 20260905225014 | 32 | 224 | 3.2 | 3.2 | 0.00 | 0.00 | 0.00 | 61 | 1013.9 |
| 20260905224509 | 32 | 117 | 3.2 | 3.2 | 0.00 | 0.00 | 0.00 | 63 | 1013.9 |
| 20260905224008 | 32 | 170 | 3.2 | 3.2 | 0.00 | 0.00 | 0.00 | 61 | 1013.5 |
| 20260905223506 | 32 | 114 | 11.3 | 12.9 | 0.00 | 0.00 | 0.00 | 60 | 1013.5 |
| 20260905223001 | 32 | 268 | 3.2 | 3.2 | 0.00 | 0.00 | 0.00 | 58 | 1013.5 |
| 20260905222501 | 31 | 64 | 9.7 | 9.7 | 0.00 | 0.00 | 0.00 | 61 | 1013.5 |
| 20260905221956 | 31 | 192 | 0.0 | 0.0 | 0.00 | 0.00 | 0.00 | 64 | 1013.5 |
| 20260905221453 | 31 | 64 | 3.2 | 3.2 | 0.00 | 0.00 | 0.00 | 62 | 1013.2 |
| 20260905220949 | 32 | 75 | 11.3 | 11.3 | 0.00 | 0.00 | 0.00 | 64 | 1013.2 |
| 20260905220445 | 32 | 6 | 3.2 | 3.2 | 0.00 | 0.00 | 0.00 | 63 | 1013.2 |
| 20260905215944 | 32 | 72 | 14.5 | 14.5 | 0.00 | 0.00 | 0.00 | 61 | 1013.5 |
| 20260905215440 | 32 | 60 | 6.4 | 8.0 | 0.00 | 0.00 | 0.00 | 61 | 1013.2 |
| 20260905214936 | 32 | 39 | 9.7 | 11.3 | 0.00 | 0.00 | 0.00 | 61 | 1013.5 |
| 20260905214432 | 32 | 179 | 8.0 | 8.0 | 0.00 | 0.00 | 0.00 | 61 | 1013.2 |
| 20260905213931 | 32 | 270 | 3.2 | 3.2 | 0.00 | 0.00 | 0.00 | 60 | 1013.5 |
| 20260905213428 | 31 | 158 | 6.4 | 6.4 | 0.00 | 0.00 | 0.00 | 62 | 1013.2 |
| 20260905212923 | 31 | 60 | 4.8 | 4.8 | 0.00 | 0.00 | 0.00 | 61 | 1013.5 |
| 20260905212418 | 31 | 29 | 6.4 | 6.4 | 0.00 | 0.00 | 0.00 | 63 | 1013.5 |
| 20260905211917 | 31 | 207 | 6.4 | 6.4 | 0.00 | 0.00 | 0.00 | 62 | 1013.5 |
| 20260905211413 | 31 | 207 | 6.4 | 6.4 | 0.00 | 0.00 | 0.00 | 61 | 1013.5 |
| 20260905210909 | 31 | 80 | 8.0 | 9.7 | 0.00 | 0.00 | 0.00 | 63 | 1013.9 |
| 20260905210409 | 31 | 157 | 8.0 | 8.0 | 0.00 | 0.00 | 0.00 | 60 | 1014.2 |
| 20260905205908 | 31 | 36 | 3.2 | 3.2 | 0.00 | 0.00 | 0.00 | 63 | 1013.9 |
| 20260905205403 | 30 | 42 | 14.5 | 17.7 | 0.00 | 0.00 | 0.00 | 63 | 1014.2 |
| 20260905204902 | 31 | 189 | 9.7 | 11.3 | 0.00 | 0.00 | 0.00 | 61 | 1014.2 |
| 20260905204358 | 30 | 86 | 11.3 | 12.9 | 0.00 | 0.00 | 0.00 | 63 | 1014.2 |
| 20260905203857 | 30 | 70 | 9.7 | 11.3 | 0.00 | 0.00 | 0.00 | 62 | 1014.6 |
| 20260905203353 | 30 | 282 | 8.0 | 9.7 | 0.00 | 0.00 | 0.00 | 61 | 1014.2 |
| 20260905202848 | 30 | 82 | 11.3 | 12.9 | 0.00 | 0.00 | 0.00 | 61 | 1014.6 |
| 20260905202349 | 30 | 76 | 9.7 | 9.7 | 0.00 | 0.00 | 0.00 | 61 | 1014.9 |
| 20260905201845 | 30 | 47 | 8.0 | 9.7 | 0.00 | 0.00 | 0.00 | 60 | 1014.9 |
| 20260905201340 | 30 | 73 | 8.0 | 8.0 | 0.00 | 0.00 | 0.00 | 60 | 1014.9 |
| 20260905200839 | 30 | 102 | 8.0 | 9.7 | 0.00 | 0.00 | 0.00 | 60 | 1015.2 |
| 20260905200336 | 30 | 73 | 14.5 | 14.5 | 0.00 | 0.00 | 0.00 | 60 | 1015.7 |
| 20260905195833 | 30 | 66 | 9.7 | 11.3 | 0.00 | 0.00 | 0.00 | 61 | 1015.7 |
| 20260905195329 | 30 | 78 | 12.9 | 12.9 | 0.00 | 0.00 | 0.00 | 61 | 1016.0 |
| 20260905194825 | 30 | 37 | 8.0 | 9.7 | 0.00 | 0.00 | 0.00 | 62 | 1016.0 |
| 20260905194324 | 29 | 138 | 8.0 | 8.0 | 0.00 | 0.00 | 0.00 | 62 | 1015.7 |
| 20260905193824 | 29 | 86 | 11.3 | 12.9 | 0.00 | 0.00 | 0.00 | 62 | 1016.0 |
| 20260905193319 | 30 | 83 | 9.7 | 11.3 | 0.00 | 0.00 | 0.00 | 62 | 1016.3 |
| 20260905192814 | 30 | 56 | 6.4 | 6.4 | 0.00 | 0.00 | 0.00 | 63 | 1016.3 |
| 20260905192310 | 30 | 68 | 11.3 | 12.9 | 0.00 | 0.00 | 0.00 | 61 | 1016.3 |
| 20260905191809 | 29 | 70 | 9.7 | 11.3 | 0.00 | 0.00 | 0.00 | 61 | 1016.3 |
| 20260905191308 | 29 | 3 | 8.0 | 9.7 | 0.00 | 0.00 | 0.00 | 58 | 1016.3 |
| 20260905190807 | 29 | 61 | 14.5 | 14.5 | 0.00 | 0.00 | 0.00 | 58 | 1016.3 |
| 20260905190301 | 29 | 54 | 11.3 | 12.9 | 0.00 | 0.00 | 0.00 | 57 | 1016.3 |
| 20260905185800 | 29 | 35 | 9.7 | 11.3 | 0.00 | 0.00 | 0.00 | 57 | 1016.7 |
| 20260905185255 | 29 | 44 | 11.3 | 11.3 | 0.00 | 0.00 | 0.00 | 56 | 1016.7 |
| 20260905184754 | 29 | 19 | 8.0 | 8.0 | 0.00 | 0.00 | 0.00 | 57 | 1017.0 |
| 20260905184253 | 29 | 94 | 9.7 | 9.7 | 0.00 | 0.00 | 0.00 | 59 | 1016.7 |
| 20260905183753 | 29 | 71 | 6.4 | 6.4 | 0.00 | 0.00 | 0.00 | 61 | 1017.0 |
| 20260905183249 | 29 | 288 | 6.4 | 6.4 | 0.00 | 0.00 | 0.00 | 60 | 1017.0 |
| 20260905182748 | 29 | 301 | 9.7 | 11.3 | 0.00 | 0.00 | 0.00 | 60 | 1017.4 |
| 20260905182247 | 29 | 81 | 8.0 | 8.0 | 0.00 | 0.00 | 0.00 | 60 | 1017.4 |
| 20260905181743 | 28 | 40 | 9.7 | 11.3 | 0.00 | 0.00 | 0.00 | 58 | 1017.0 |